createdAt,value
2022-12-07T00:01:46.797Z,5.30
2022-12-07T00:04:15.990Z,7.33
2022-12-07T00:06:44.905Z,6.50
2022-12-07T00:09:15.382Z,6.43
2022-12-07T00:11:41.925Z,5.57
2022-12-07T00:14:13.658Z,6.33
2022-12-07T00:16:40.803Z,6.33
2022-12-07T00:19:07.604Z,5.70
2022-12-07T00:21:36.298Z,7.13
2022-12-07T00:24:04.977Z,7.03
2022-12-07T00:26:36.860Z,6.63
2022-12-07T00:29:06.840Z,6.90
2022-12-07T00:31:39.479Z,5.50
2022-12-07T00:34:14.063Z,6.40
2022-12-07T00:36:40.568Z,6.30
2022-12-07T00:39:07.241Z,6.20
2022-12-07T00:41:33.720Z,6.03
2022-12-07T00:44:00.247Z,6.60
2022-12-07T00:46:27.609Z,6.23
2022-12-07T00:48:54.996Z,6.00
2022-12-07T00:51:23.857Z,6.20
2022-12-07T00:53:50.710Z,6.60
2022-12-07T00:56:22.732Z,6.00
2022-12-07T00:58:54.528Z,7.40
2022-12-07T01:01:21.119Z,6.67
2022-12-07T01:03:47.749Z,8.60
2022-12-07T01:06:19.201Z,6.80
2022-12-07T01:08:45.729Z,6.47
2022-12-07T01:11:15.700Z,7.17
2022-12-07T01:13:42.922Z,5.97
2022-12-07T01:16:12.622Z,7.17
2022-12-07T01:18:40.462Z,6.50
2022-12-07T01:21:17.186Z,6.57
2022-12-07T01:23:44.123Z,6.17
2022-12-07T01:26:16.550Z,6.57
2022-12-07T01:28:43.756Z,6.10
2022-12-07T01:31:16.250Z,5.30
2022-12-07T01:33:47.865Z,5.70
2022-12-07T01:36:16.390Z,6.07
2022-12-07T01:38:43.470Z,7.07
2022-12-07T01:41:10.298Z,6.90
2022-12-07T01:43:37.674Z,6.10
2022-12-07T01:46:05.115Z,6.17
2022-12-07T01:48:40.161Z,6.40
2022-12-07T01:51:12.052Z,6.20
2022-12-07T01:53:41.440Z,6.77
2022-12-07T01:56:09.857Z,6.10
2022-12-07T01:58:36.782Z,5.70
2022-12-07T02:01:03.417Z,6.97
2022-12-07T02:03:36.306Z,5.97
2022-12-07T02:06:03.552Z,6.60
2022-12-07T02:08:30.016Z,6.10
2022-12-07T02:10:56.630Z,6.47
2022-12-07T02:13:26.506Z,6.20
2022-12-07T02:15:55.866Z,6.30
2022-12-07T02:18:53.737Z,5.97
2022-12-07T02:21:26.990Z,5.80
2022-12-07T02:24:30.238Z,6.00
2022-12-07T02:27:38.239Z,7.27
2022-12-07T02:30:07.799Z,6.67
2022-12-07T02:32:57.784Z,6.60
2022-12-07T02:35:43.448Z,6.47
2022-12-07T02:38:16.802Z,6.77
2022-12-07T02:40:49.398Z,6.00
2022-12-07T02:43:27.720Z,6.70
2022-12-07T02:45:57.840Z,6.80
2022-12-07T02:48:24.447Z,7.50
2022-12-07T02:50:52.358Z,5.80
2022-12-07T02:53:37.690Z,7.20
2022-12-07T02:56:12.540Z,6.13
2022-12-07T02:58:48.842Z,6.43
2022-12-07T03:01:44.319Z,6.10
2022-12-07T03:04:22.891Z,7.13
2022-12-07T03:07:01.722Z,6.67
2022-12-07T03:09:35.177Z,6.43
2022-12-07T03:12:17.054Z,6.43
2022-12-07T03:14:48.732Z,5.63
2022-12-07T03:17:18.988Z,5.97
2022-12-07T03:19:46.759Z,6.60
2022-12-07T03:22:14.977Z,6.90
2022-12-07T03:24:50.594Z,7.00
2022-12-07T03:27:21.700Z,7.37
2022-12-07T03:29:54.618Z,6.20
2022-12-07T03:32:41.929Z,6.10
2022-12-07T03:35:27.922Z,6.17
2022-12-07T03:38:06.380Z,7.60
2022-12-07T03:40:50.905Z,6.27
2022-12-07T03:43:19.106Z,6.50
2022-12-07T03:46:18.474Z,5.00
2022-12-07T03:48:58.258Z,5.80
2022-12-07T03:51:37.320Z,6.10
2022-12-07T03:54:20.496Z,7.07
2022-12-07T03:56:47.140Z,6.03
2022-12-07T03:59:15.988Z,6.70
2022-12-07T04:01:46.798Z,6.60
2022-12-07T04:04:13.537Z,6.20
2022-12-07T04:06:40.016Z,6.40
2022-12-07T04:09:06.866Z,7.10
2022-12-07T04:11:33.427Z,6.43
2022-12-07T04:14:18.374Z,5.93
2022-12-07T04:16:59.082Z,7.10
2022-12-07T04:19:27.779Z,7.10
2022-12-07T04:21:54.995Z,7.87
2022-12-07T04:24:21.774Z,6.77
2022-12-07T04:26:48.574Z,7.60
2022-12-07T04:29:15.635Z,6.37
2022-12-07T04:31:42.518Z,6.77
2022-12-07T04:34:09.664Z,6.97
2022-12-07T04:36:36.722Z,6.60
2022-12-07T04:39:04.508Z,7.73
2022-12-07T04:41:31.036Z,7.70
2022-12-07T04:43:59.470Z,8.90
2022-12-07T04:46:26.639Z,7.47
2022-12-07T04:48:54.000Z,8.57
2022-12-07T04:51:27.387Z,7.77
2022-12-07T04:53:54.159Z,7.50
2022-12-07T04:56:20.764Z,9.30
2022-12-07T04:58:48.945Z,8.40
2022-12-07T05:01:16.961Z,8.63
2022-12-07T05:03:43.527Z,9.47
2022-12-07T05:06:13.570Z,9.37
2022-12-07T05:08:40.573Z,8.63
2022-12-07T05:11:08.015Z,8.90
2022-12-07T05:13:34.810Z,8.40
2022-12-07T05:16:01.386Z,9.07
2022-12-07T05:18:27.906Z,10.97
2022-12-07T05:20:54.674Z,8.77
2022-12-07T05:23:21.249Z,7.83
2022-12-07T05:25:47.986Z,30.87
2022-12-07T05:28:14.511Z,79.90
2022-12-07T05:30:41.009Z,42.47
2022-12-07T05:33:07.590Z,37.50
2022-12-07T05:35:34.105Z,31.50
2022-12-07T05:38:00.679Z,19.13
2022-12-07T05:40:27.237Z,19.13
2022-12-07T05:42:53.775Z,10.10
2022-12-07T05:45:20.350Z,13.00
2022-12-07T05:47:46.817Z,18.80
2022-12-07T05:50:13.320Z,14.30
2022-12-07T05:52:39.857Z,25.20
2022-12-07T05:55:08.055Z,19.50
2022-12-07T05:57:34.556Z,18.40
2022-12-07T06:00:01.513Z,15.50
2022-12-07T06:02:28.786Z,18.10
2022-12-07T06:04:55.397Z,20.80
2022-12-07T06:07:22.143Z,13.90
2022-12-07T06:09:48.570Z,14.70
2022-12-07T06:12:34.827Z,10.20
2022-12-07T06:15:01.443Z,10.93
2022-12-07T06:17:27.999Z,9.60
2022-12-07T06:19:54.585Z,9.50
2022-12-07T06:22:21.140Z,9.00
2022-12-07T06:24:47.803Z,9.37
2022-12-07T06:27:14.410Z,10.03
2022-12-07T06:29:40.950Z,11.63
2022-12-07T06:32:07.536Z,10.47
2022-12-07T06:34:34.410Z,12.53
2022-12-07T06:37:00.920Z,13.53
2022-12-07T06:39:29.068Z,13.03
2022-12-07T06:41:55.853Z,10.37
2022-12-07T06:44:23.233Z,10.30
2022-12-07T06:46:50.524Z,10.17
2022-12-07T06:49:17.359Z,9.37
2022-12-07T06:51:44.685Z,9.87
2022-12-07T06:54:12.576Z,8.60
2022-12-07T06:56:39.328Z,10.00
2022-12-07T06:59:07.497Z,9.60
2022-12-07T07:01:35.484Z,9.57
2022-12-07T07:04:02.467Z,10.07
2022-12-07T07:06:29.007Z,9.53
2022-12-07T07:08:55.531Z,9.97
2022-12-07T07:11:22.091Z,9.90
2022-12-07T07:13:48.599Z,9.80
2022-12-07T07:16:15.307Z,9.13
2022-12-07T07:18:41.908Z,10.60
2022-12-07T07:21:08.552Z,10.10
2022-12-07T07:23:35.055Z,9.53
2022-12-07T07:26:01.727Z,9.77
2022-12-07T07:28:28.328Z,10.47
2022-12-07T07:30:54.916Z,9.83
2022-12-07T07:33:21.450Z,9.30
2022-12-07T07:35:48.019Z,9.40
2022-12-07T07:38:14.599Z,9.57
2022-12-07T07:40:41.174Z,9.63
2022-12-07T07:43:07.872Z,9.83
2022-12-07T07:45:34.404Z,10.20
2022-12-07T07:48:00.972Z,10.00
2022-12-07T07:50:27.648Z,10.07
2022-12-07T07:52:54.269Z,9.93
2022-12-07T07:55:21.090Z,9.00
2022-12-07T07:57:54.159Z,9.37
2022-12-07T08:00:21.642Z,9.27
2022-12-07T08:02:48.365Z,9.57
2022-12-07T08:05:15.269Z,10.13
2022-12-07T08:07:42.201Z,9.40
2022-12-07T08:10:11.969Z,9.57
2022-12-07T08:13:00.323Z,8.13
2022-12-07T08:15:29.492Z,9.60
2022-12-07T08:17:56.215Z,10.70
2022-12-07T08:20:23.218Z,10.30
2022-12-07T08:22:51.102Z,10.03
2022-12-07T08:25:18.243Z,9.00
2022-12-07T08:27:44.837Z,10.17
2022-12-07T08:30:11.406Z,10.50
2022-12-07T08:32:37.979Z,9.23
2022-12-07T08:35:04.729Z,9.77
2022-12-07T08:37:32.578Z,10.70
2022-12-07T08:39:59.124Z,9.80
2022-12-07T08:42:30.485Z,10.30
2022-12-07T08:44:58.166Z,9.13
2022-12-07T08:47:25.311Z,9.77
2022-12-07T08:49:52.428Z,11.67
2022-12-07T08:52:19.128Z,12.30
2022-12-07T08:54:46.007Z,11.67
2022-12-07T08:57:13.346Z,10.13
2022-12-07T08:59:39.908Z,9.00
2022-12-07T09:02:06.823Z,10.57
2022-12-07T09:04:33.477Z,10.13
2022-12-07T09:07:00.705Z,13.00
2022-12-07T09:09:27.297Z,12.43
2022-12-07T09:11:54.067Z,17.17
2022-12-07T09:14:20.658Z,21.07
2022-12-07T09:16:47.279Z,10.33
2022-12-07T09:19:13.858Z,17.00
2022-12-07T09:21:40.618Z,12.60
2022-12-07T09:24:07.290Z,11.50
2022-12-07T09:26:33.871Z,11.73
2022-12-07T09:29:00.300Z,9.90
2022-12-07T09:31:27.399Z,11.27
2022-12-07T09:34:01.399Z,10.63
2022-12-07T09:36:29.168Z,12.30
2022-12-07T09:38:55.852Z,10.93
2022-12-07T09:41:23.906Z,10.70
2022-12-07T09:43:50.817Z,13.60
2022-12-07T09:46:20.656Z,11.53
2022-12-07T09:48:48.751Z,11.57
2022-12-07T09:51:23.317Z,10.00
2022-12-07T09:53:52.835Z,10.50
2022-12-07T09:56:20.786Z,9.80
2022-12-07T09:58:47.919Z,12.63
2022-12-07T10:01:22.196Z,10.00
2022-12-07T10:03:56.836Z,11.70
2022-12-07T10:06:23.488Z,9.83
2022-12-07T10:08:50.002Z,9.87
2022-12-07T10:11:17.353Z,10.23
2022-12-07T10:13:55.010Z,10.00
2022-12-07T10:16:41.242Z,12.50
2022-12-07T10:19:26.155Z,10.60
2022-12-07T10:22:10.277Z,11.47
2022-12-07T10:24:40.468Z,11.70
2022-12-07T10:27:19.028Z,11.20
2022-12-07T10:29:51.408Z,12.03
2022-12-07T10:32:17.996Z,11.97
2022-12-07T10:34:50.487Z,12.00
2022-12-07T10:37:20.742Z,12.87
2022-12-07T10:39:55.448Z,12.63
2022-12-07T10:42:30.237Z,11.90
2022-12-07T10:45:19.016Z,11.93
2022-12-07T10:47:53.322Z,12.40
2022-12-07T10:50:32.280Z,12.87
2022-12-07T10:53:04.627Z,12.13
2022-12-07T10:55:45.966Z,13.30
2022-12-07T10:58:25.006Z,12.50
2022-12-07T11:01:00.281Z,13.00
2022-12-07T11:03:40.872Z,15.77
2022-12-07T11:06:32.586Z,12.33
2022-12-07T11:09:03.827Z,11.93
2022-12-07T11:11:40.172Z,14.70
2022-12-07T11:14:38.421Z,11.10
2022-12-07T11:17:36.334Z,12.57
2022-12-07T11:20:14.940Z,11.07
2022-12-07T11:22:52.845Z,12.10
2022-12-07T11:25:31.726Z,11.43
2022-12-07T11:28:27.533Z,11.23
2022-12-07T11:31:29.060Z,11.90
2022-12-07T11:34:05.665Z,10.37
2022-12-07T11:36:42.759Z,11.20
2022-12-07T11:39:34.274Z,12.43
2022-12-07T11:42:27.790Z,10.67
2022-12-07T11:45:34.148Z,12.67
2022-12-07T11:48:17.981Z,12.40
2022-12-07T11:50:51.581Z,12.77
2022-12-07T11:53:22.716Z,12.20
2022-12-07T11:56:03.510Z,11.33
2022-12-07T11:58:42.160Z,12.47
2022-12-07T12:01:14.743Z,12.67
2022-12-07T12:03:53.370Z,12.73
2022-12-07T12:06:21.081Z,11.63
2022-12-07T12:14:58.956Z,11.70
2022-12-07T12:17:34.517Z,12.20
2022-12-07T12:20:00.969Z,10.73
2022-12-07T12:22:34.795Z,12.40
2022-12-07T12:25:05.364Z,13.13
2022-12-07T12:27:34.335Z,13.27
2022-12-07T12:30:03.038Z,10.57
2022-12-07T12:32:39.497Z,10.73
2022-12-07T12:35:44.642Z,10.03
2022-12-07T12:38:28.907Z,8.17
2022-12-07T12:40:56.667Z,9.20
2022-12-07T12:43:55.010Z,8.87
2022-12-07T12:46:30.826Z,11.00
2022-12-07T12:49:18.996Z,9.53
2022-12-07T12:51:56.941Z,7.87
2022-12-07T12:54:28.630Z,11.23
2022-12-07T12:57:07.232Z,10.80
2022-12-07T12:59:39.144Z,8.97
2022-12-07T13:02:24.212Z,8.70
2022-12-07T13:05:11.014Z,8.57
2022-12-07T13:07:52.771Z,8.00
2022-12-07T13:10:25.444Z,9.83
2022-12-07T13:13:02.026Z,8.60
2022-12-07T13:15:50.549Z,11.73
2022-12-07T13:18:24.378Z,22.50
2022-12-07T13:20:52.708Z,19.87
2022-12-07T13:23:21.572Z,10.90
2022-12-07T13:25:57.058Z,8.57
2022-12-07T13:28:27.328Z,8.33
2022-12-07T13:30:59.896Z,6.40
2022-12-07T13:33:29.396Z,7.70
2022-12-07T13:35:57.572Z,8.50
2022-12-07T13:38:50.860Z,7.80
2022-12-07T13:41:18.880Z,6.90
2022-12-07T13:43:53.250Z,6.17
2022-12-07T13:46:44.218Z,6.77
2022-12-07T13:49:19.316Z,6.57
2022-12-07T13:51:45.889Z,7.27
2022-12-07T13:54:13.576Z,6.70
2022-12-07T13:56:41.132Z,7.07
2022-12-07T13:59:27.558Z,7.70
2022-12-07T14:01:55.215Z,7.13
2022-12-07T14:04:38.903Z,7.20
2022-12-07T14:07:59.761Z,6.73
2022-12-07T14:10:34.965Z,7.73
2022-12-07T14:13:03.209Z,7.90
2022-12-07T14:15:32.438Z,6.43
2022-12-07T14:18:04.458Z,7.37
2022-12-07T14:20:37.468Z,7.17
2022-12-07T14:23:11.136Z,7.73
2022-12-07T14:25:52.294Z,6.80
2022-12-07T14:28:29.614Z,6.90
2022-12-07T14:30:56.403Z,6.73
2022-12-07T14:33:24.099Z,6.90
2022-12-07T14:35:50.788Z,6.67
2022-12-07T14:38:19.791Z,6.43
2022-12-07T14:40:46.297Z,6.23
2022-12-07T14:43:14.152Z,6.07
2022-12-07T14:45:41.407Z,6.90
2022-12-07T14:53:55.456Z,7.93
2022-12-07T14:56:24.385Z,9.50
2022-12-07T14:58:50.968Z,9.40
2022-12-07T15:01:17.470Z,9.00
2022-12-07T15:03:44.069Z,8.40
2022-12-07T15:06:18.339Z,9.20
2022-12-07T15:08:47.735Z,8.20
2022-12-07T15:11:16.053Z,8.20
2022-12-07T15:14:01.058Z,7.37
2022-12-07T15:16:30.693Z,8.47
2022-12-07T15:19:30.136Z,9.20
2022-12-07T15:21:50.602Z,8.93
2022-12-07T15:24:17.197Z,9.23
2022-12-07T15:26:43.845Z,11.33
2022-12-07T15:29:11.381Z,8.10
2022-12-07T15:34:36.150Z,9.00
2022-12-07T15:37:05.991Z,8.90
2022-12-07T15:39:32.624Z,9.00
2022-12-07T15:41:59.110Z,8.30
2022-12-07T15:44:44.394Z,8.47
2022-12-07T15:47:10.964Z,9.90
2022-12-07T15:49:37.691Z,9.30
2022-12-07T15:52:04.399Z,9.10
2022-12-07T15:54:31.355Z,7.23
2022-12-07T15:56:57.996Z,7.40
2022-12-07T15:59:25.084Z,7.43
2022-12-07T16:01:51.801Z,7.50
2022-12-07T16:04:18.410Z,5.70
2022-12-07T16:06:45.685Z,6.00
2022-12-07T16:09:12.180Z,5.50
2022-12-07T16:11:38.753Z,6.43
2022-12-07T16:14:05.599Z,5.20
2022-12-07T16:16:32.631Z,5.73
2022-12-07T16:18:59.325Z,5.07
2022-12-07T16:21:26.027Z,5.73
2022-12-07T16:23:53.114Z,6.03
2022-12-07T16:26:21.927Z,5.70
2022-12-07T16:28:53.126Z,5.80
2022-12-07T16:31:22.180Z,5.20
2022-12-07T16:33:50.095Z,5.70
2022-12-07T16:36:33.999Z,6.83
2022-12-07T16:39:05.284Z,6.80
2022-12-07T16:41:32.315Z,6.00
2022-12-07T16:44:04.166Z,5.70
2022-12-07T16:46:30.985Z,5.50
2022-12-07T16:48:57.528Z,5.40
2022-12-07T16:51:24.035Z,6.20
2022-12-07T16:53:55.755Z,6.53
2022-12-07T16:56:22.611Z,7.73
2022-12-07T16:58:50.899Z,12.30
2022-12-07T17:01:19.915Z,12.50
2022-12-07T17:03:47.555Z,9.47
2022-12-07T17:06:16.514Z,7.90
2022-12-07T17:08:43.447Z,7.10
2022-12-07T17:11:15.530Z,7.83
2022-12-07T17:14:00.761Z,7.33
2022-12-07T17:16:27.484Z,7.10
2022-12-07T17:18:54.046Z,11.43
2022-12-07T17:21:20.955Z,8.80
2022-12-07T17:23:47.949Z,7.77
2022-12-07T17:26:20.187Z,9.27
2022-12-07T17:28:47.285Z,13.70
2022-12-07T17:31:15.478Z,14.50
2022-12-07T17:33:42.173Z,14.13
2022-12-07T17:36:20.497Z,16.00
2022-12-07T17:38:48.355Z,16.57
2022-12-07T17:41:39.238Z,20.60
2022-12-07T17:44:08.902Z,19.13
2022-12-07T17:46:35.385Z,16.20
2022-12-07T17:49:02.408Z,13.77
2022-12-07T17:51:47.583Z,12.37
2022-12-07T17:54:14.114Z,8.60
2022-12-07T17:56:41.151Z,8.27
2022-12-07T17:59:07.951Z,9.80
2022-12-07T18:01:35.185Z,9.60
2022-12-07T18:04:03.108Z,10.87
2022-12-07T18:06:29.575Z,9.57
2022-12-07T18:08:56.279Z,7.93
2022-12-07T18:11:23.113Z,9.10
2022-12-07T18:13:49.663Z,8.70
2022-12-07T18:16:18.794Z,8.60
2022-12-07T18:18:50.754Z,9.20
2022-12-07T18:21:24.376Z,9.17
2022-12-07T18:23:53.160Z,8.00
2022-12-07T18:26:20.904Z,7.77
2022-12-07T18:28:47.839Z,7.77
2022-12-07T18:31:16.272Z,8.00
2022-12-07T18:33:44.150Z,6.97
2022-12-07T18:36:10.950Z,6.10
2022-12-07T18:38:37.518Z,7.87
2022-12-07T18:41:04.321Z,6.40
2022-12-07T18:43:30.820Z,6.53
2022-12-07T18:45:57.421Z,6.30
2022-12-07T18:48:24.287Z,6.10
2022-12-07T18:51:02.673Z,5.00
2022-12-07T18:53:29.122Z,5.70
2022-12-07T18:56:19.676Z,7.03
2022-12-07T18:59:09.857Z,6.33
2022-12-07T19:01:36.631Z,5.20
2022-12-07T19:04:04.185Z,5.83
2022-12-07T19:06:30.747Z,7.73
2022-12-07T19:08:57.481Z,5.80
2022-12-07T19:11:45.071Z,7.40
2022-12-07T19:14:11.789Z,8.70
2022-12-07T19:16:38.907Z,8.70
2022-12-07T19:19:05.551Z,7.13
2022-12-07T19:21:32.050Z,7.90
2022-12-07T19:23:58.544Z,9.47
2022-12-07T19:26:25.236Z,8.90
2022-12-07T19:28:51.703Z,7.70
2022-12-07T19:31:18.287Z,8.10
2022-12-07T19:33:44.858Z,8.03
2022-12-07T19:36:11.425Z,8.57
2022-12-07T19:38:37.999Z,8.40
2022-12-07T19:41:32.772Z,8.33
2022-12-07T19:44:00.764Z,8.60
2022-12-07T19:46:28.321Z,8.83
2022-12-07T19:48:55.328Z,9.77
2022-12-07T19:51:21.855Z,9.03
2022-12-07T19:53:48.418Z,9.30
2022-12-07T19:56:16.454Z,8.97
2022-12-07T19:58:43.237Z,9.07
2022-12-07T20:01:10.162Z,7.70
2022-12-07T20:03:36.793Z,10.10
2022-12-07T20:06:11.090Z,11.93
2022-12-07T20:08:37.582Z,13.00
2022-12-07T20:11:24.368Z,11.97
2022-12-07T20:13:51.149Z,10.37
2022-12-07T20:16:20.176Z,9.43
2022-12-07T20:18:48.595Z,8.70
2022-12-07T20:21:18.571Z,8.20
2022-12-07T20:23:45.143Z,8.17
2022-12-07T20:26:13.177Z,8.23
2022-12-07T20:28:40.410Z,8.70
2022-12-07T20:31:07.165Z,8.33
2022-12-07T20:33:33.666Z,7.27
2022-12-07T20:36:04.818Z,7.00
2022-12-07T20:38:34.646Z,8.63
2022-12-07T20:41:03.795Z,6.03
2022-12-07T20:43:30.697Z,13.37
2022-12-07T20:45:57.798Z,17.70
2022-12-07T20:48:24.571Z,14.43
2022-12-07T20:50:51.105Z,10.20
2022-12-07T20:53:17.880Z,8.67
2022-12-07T20:55:45.025Z,6.70
2022-12-07T20:58:11.613Z,6.87
2022-12-07T21:00:38.193Z,7.50
2022-12-07T21:03:05.424Z,8.10
2022-12-07T21:05:33.223Z,7.70
2022-12-07T21:07:59.772Z,7.83
2022-12-07T21:10:26.306Z,7.20
2022-12-07T21:12:55.810Z,6.53
2022-12-07T21:15:22.820Z,6.37
2022-12-07T21:17:49.352Z,5.93
2022-12-07T21:20:15.875Z,6.50
2022-12-07T21:22:42.391Z,5.67
2022-12-07T21:25:09.434Z,6.60
2022-12-07T21:27:35.950Z,5.50
2022-12-07T21:30:02.387Z,5.80
2022-12-07T21:32:28.886Z,6.10
2022-12-07T21:34:55.461Z,7.80
2022-12-07T21:37:22.105Z,7.40
2022-12-07T21:39:48.725Z,6.37
2022-12-07T21:42:15.279Z,5.77
2022-12-07T21:44:41.978Z,6.10
2022-12-07T21:47:08.536Z,6.50
2022-12-07T21:49:36.569Z,5.97
2022-12-07T21:52:03.472Z,5.97
2022-12-07T21:54:30.317Z,6.10
2022-12-07T21:56:56.936Z,6.70
2022-12-07T21:59:23.641Z,5.53
2022-12-07T22:01:51.643Z,5.13
2022-12-07T22:04:21.645Z,6.60
2022-12-07T22:06:49.295Z,6.07
2022-12-07T22:09:18.760Z,6.80
2022-12-07T22:11:46.300Z,5.47
2022-12-07T22:14:31.556Z,5.63
2022-12-07T22:16:58.655Z,5.87
2022-12-07T22:19:25.694Z,7.03
2022-12-07T22:21:52.298Z,5.40
2022-12-07T22:24:18.896Z,5.70
2022-12-07T22:26:45.561Z,4.47
2022-12-07T22:29:12.468Z,6.80
2022-12-07T22:31:41.090Z,5.87
2022-12-07T22:34:12.049Z,5.20
2022-12-07T22:36:38.550Z,5.33
2022-12-07T22:39:05.610Z,5.70
2022-12-07T22:41:32.418Z,6.17
2022-12-07T22:43:59.959Z,6.47
2022-12-07T22:46:26.946Z,6.17
2022-12-07T22:48:53.712Z,5.90
2022-12-07T22:51:28.968Z,5.83
2022-12-07T22:53:55.981Z,7.27
2022-12-07T22:56:22.842Z,5.63
2022-12-07T22:58:49.494Z,5.80
2022-12-07T23:01:17.266Z,5.47
2022-12-07T23:03:44.044Z,6.00
2022-12-07T23:06:23.920Z,6.33
2022-12-07T23:08:51.125Z,5.77
2022-12-07T23:11:39.179Z,5.73
2022-12-07T23:14:10.659Z,5.70
2022-12-07T23:16:37.219Z,6.17
2022-12-07T23:19:04.329Z,6.50
2022-12-07T23:21:31.268Z,7.27
2022-12-07T23:23:57.968Z,6.33
2022-12-07T23:26:24.542Z,6.10
2022-12-07T23:28:51.167Z,5.93
2022-12-07T23:31:19.079Z,5.90
2022-12-07T23:33:45.962Z,5.23
2022-12-07T23:36:18.071Z,5.40
2022-12-07T23:38:45.922Z,5.30
2022-12-07T23:41:14.396Z,5.10
2022-12-07T23:43:41.630Z,5.00
2022-12-07T23:46:14.329Z,5.50
2022-12-07T23:48:41.273Z,5.50
2022-12-07T23:51:09.311Z,5.87
2022-12-07T23:53:36.750Z,6.40
2022-12-07T23:56:04.092Z,6.60
2022-12-07T23:58:30.723Z,6.50
